Terminal Aerodrome Forecast
Issued by NWS

Home | Current Version | Previous Version | Text Only | Print | Product List | Glossary Off
Versions: 1 2 3 4 5 6 7 8 9 10 11 12 13 14 15 16 17

000
FTUS43 KICT 242115 AAA
TAFCNU
TAF AMD
KCNU 242115Z 2421/2518 27011KT P6SM OVC015
     FM250100 19007KT P6SM SKC
      TEMPO 2502/2506 4SM BR
     FM251600 18019G26KT P6SM BKN250=

USA.gov is the U.S. government's official web portal to all federal, state and local government web resources and services.